sensor_id;sensor_type;location;lat;lon;timestamp;P1;durP1;ratioP1;P2;durP2;ratioP2
12976;SDS011;6553;48.412;9.514;2024-02-21T00:00:55;5.93;;;5.32;;
12976;SDS011;6553;48.412;9.514;2024-02-21T00:03:21;5.88;;;5.15;;
12976;SDS011;6553;48.412;9.514;2024-02-21T00:05:47;5.38;;;4.85;;
12976;SDS011;6553;48.412;9.514;2024-02-21T00:08:13;5.90;;;4.88;;
12976;SDS011;6553;48.412;9.514;2024-02-21T00:10:39;5.60;;;5.10;;
12976;SDS011;6553;48.412;9.514;2024-02-21T00:13:05;5.65;;;5.05;;
12976;SDS011;6553;48.412;9.514;2024-02-21T00:15:30;4.90;;;4.50;;
12976;SDS011;6553;48.412;9.514;2024-02-21T00:17:56;4.70;;;4.30;;
12976;SDS011;6553;48.412;9.514;2024-02-21T00:20:22;5.10;;;4.60;;
12976;SDS011;6553;48.412;9.514;2024-02-21T00:22:48;5.68;;;5.07;;
12976;SDS011;6553;48.412;9.514;2024-02-21T00:25:13;5.20;;;4.40;;
12976;SDS011;6553;48.412;9.514;2024-02-21T00:27:39;5.97;;;4.78;;
12976;SDS011;6553;48.412;9.514;2024-02-21T00:30:05;5.38;;;4.88;;
12976;SDS011;6553;48.412;9.514;2024-02-21T00:32:31;4.78;;;4.20;;
12976;SDS011;6553;48.412;9.514;2024-02-21T00:34:59;4.75;;;4.25;;
12976;SDS011;6553;48.412;9.514;2024-02-21T00:37:26;5.10;;;4.60;;
12976;SDS011;6553;48.412;9.514;2024-02-21T00:39:53;5.90;;;4.75;;
12976;SDS011;6553;48.412;9.514;2024-02-21T00:42:19;4.75;;;4.25;;
12976;SDS011;6553;48.412;9.514;2024-02-21T00:44:46;5.13;;;4.63;;
12976;SDS011;6553;48.412;9.514;2024-02-21T00:47:12;4.47;;;4.07;;
12976;SDS011;6553;48.412;9.514;2024-02-21T00:49:38;5.30;;;4.13;;
12976;SDS011;6553;48.412;9.514;2024-02-21T00:52:04;4.47;;;4.07;;
12976;SDS011;6553;48.412;9.514;2024-02-21T00:54:29;5.18;;;4.40;;
12976;SDS011;6553;48.412;9.514;2024-02-21T00:56:55;5.18;;;4.40;;
12976;SDS011;6553;48.412;9.514;2024-02-21T00:59:21;4.80;;;4.40;;
12976;SDS011;6553;48.412;9.514;2024-02-21T01:01:47;4.75;;;4.25;;
12976;SDS011;6553;48.412;9.514;2024-02-21T01:04:13;4.93;;;4.43;;
12976;SDS011;6553;48.412;9.514;2024-02-21T01:06:38;4.68;;;4.18;;
12976;SDS011;6553;48.412;9.514;2024-02-21T01:09:07;4.53;;;4.13;;
12976;SDS011;6553;48.412;9.514;2024-02-21T01:11:33;5.35;;;4.07;;
12976;SDS011;6553;48.412;9.514;2024-02-21T01:13:59;4.00;;;3.60;;
12976;SDS011;6553;48.412;9.514;2024-02-21T01:16:25;3.92;;;3.55;;
12976;SDS011;6553;48.412;9.514;2024-02-21T01:18:51;4.28;;;3.88;;
12976;SDS011;6553;48.412;9.514;2024-02-21T01:21:17;4.47;;;4.07;;
12976;SDS011;6553;48.412;9.514;2024-02-21T01:23:43;4.07;;;3.67;;
12976;SDS011;6553;48.412;9.514;2024-02-21T01:26:09;4.10;;;3.67;;
12976;SDS011;6553;48.412;9.514;2024-02-21T01:28:38;4.32;;;3.92;;
12976;SDS011;6553;48.412;9.514;2024-02-21T01:31:05;3.90;;;3.60;;
12976;SDS011;6553;48.412;9.514;2024-02-21T01:33:31;3.92;;;3.63;;
12976;SDS011;6553;48.412;9.514;2024-02-21T01:36:03;4.00;;;3.70;;
12976;SDS011;6553;48.412;9.514;2024-02-21T01:38:31;4.85;;;4.03;;
12976;SDS011;6553;48.412;9.514;2024-02-21T01:40:58;4.43;;;3.40;;
12976;SDS011;6553;48.412;9.514;2024-02-21T01:43:24;3.65;;;3.35;;
12976;SDS011;6553;48.412;9.514;2024-02-21T01:45:50;4.43;;;4.03;;
12976;SDS011;6553;48.412;9.514;2024-02-21T01:48:22;4.07;;;3.67;;
12976;SDS011;6553;48.412;9.514;2024-02-21T01:50:48;3.80;;;3.50;;
12976;SDS011;6553;48.412;9.514;2024-02-21T01:53:19;4.75;;;3.63;;
12976;SDS011;6553;48.412;9.514;2024-02-21T01:55:50;4.22;;;3.83;;
12976;SDS011;6553;48.412;9.514;2024-02-21T01:58:16;3.53;;;3.10;;
12976;SDS011;6553;48.412;9.514;2024-02-21T02:00:44;3.17;;;2.88;;
12976;SDS011;6553;48.412;9.514;2024-02-21T02:03:12;3.50;;;3.20;;
12976;SDS011;6553;48.412;9.514;2024-02-21T02:05:45;3.42;;;3.17;;
12976;SDS011;6553;48.412;9.514;2024-02-21T02:08:12;4.07;;;3.38;;
12976;SDS011;6553;48.412;9.514;2024-02-21T02:10:39;3.63;;;3.33;;
12976;SDS011;6553;48.412;9.514;2024-02-21T02:13:06;3.05;;;2.80;;
12976;SDS011;6553;48.412;9.514;2024-02-21T02:15:42;3.92;;;3.15;;
12976;SDS011;6553;48.412;9.514;2024-02-21T02:18:11;4.07;;;3.13;;
12976;SDS011;6553;48.412;9.514;2024-02-21T02:20:39;3.30;;;3.00;;
12976;SDS011;6553;48.412;9.514;2024-02-21T02:25:51;3.50;;;3.20;;
12976;SDS011;6553;48.412;9.514;2024-02-21T02:28:20;3.53;;;3.22;;
12976;SDS011;6553;48.412;9.514;2024-02-21T02:30:46;3.28;;;2.97;;
12976;SDS011;6553;48.412;9.514;2024-02-21T02:33:12;3.75;;;3.13;;
12976;SDS011;6553;48.412;9.514;2024-02-21T02:35:38;4.15;;;3.30;;
12976;SDS011;6553;48.412;9.514;2024-02-21T02:38:05;3.08;;;2.80;;
12976;SDS011;6553;48.412;9.514;2024-02-21T02:40:33;3.25;;;2.70;;
12976;SDS011;6553;48.412;9.514;2024-02-21T02:42:59;3.15;;;2.85;;
12976;SDS011;6553;48.412;9.514;2024-02-21T02:45:26;3.35;;;3.05;;
12976;SDS011;6553;48.412;9.514;2024-02-21T02:47:55;3.28;;;2.70;;
12976;SDS011;6553;48.412;9.514;2024-02-21T02:50:24;3.35;;;3.05;;
12976;SDS011;6553;48.412;9.514;2024-02-21T02:52:52;3.13;;;2.85;;
12976;SDS011;6553;48.412;9.514;2024-02-21T02:55:19;3.08;;;2.78;;
12976;SDS011;6553;48.412;9.514;2024-02-21T02:57:45;2.75;;;2.53;;
12976;SDS011;6553;48.412;9.514;2024-02-21T03:00:11;3.15;;;2.95;;
12976;SDS011;6553;48.412;9.514;2024-02-21T03:02:39;2.75;;;2.55;;
12976;SDS011;6553;48.412;9.514;2024-02-21T03:05:14;3.40;;;2.78;;
12976;SDS011;6553;48.412;9.514;2024-02-21T03:07:43;3.70;;;2.88;;
12976;SDS011;6553;48.412;9.514;2024-02-21T03:10:09;3.47;;;2.80;;
12976;SDS011;6553;48.412;9.514;2024-02-21T03:12:36;3.10;;;2.80;;
12976;SDS011;6553;48.412;9.514;2024-02-21T03:15:03;2.80;;;2.60;;
12976;SDS011;6553;48.412;9.514;2024-02-21T03:17:30;2.80;;;2.60;;
12976;SDS011;6553;48.412;9.514;2024-02-21T03:19:57;3.05;;;2.80;;
12976;SDS011;6553;48.412;9.514;2024-02-21T03:22:25;3.08;;;2.63;;
12976;SDS011;6553;48.412;9.514;2024-02-21T03:24:50;2.75;;;2.55;;
12976;SDS011;6553;48.412;9.514;2024-02-21T03:27:16;3.22;;;2.88;;
12976;SDS011;6553;48.412;9.514;2024-02-21T03:29:42;2.58;;;2.38;;
12976;SDS011;6553;48.412;9.514;2024-02-21T03:32:08;2.55;;;2.35;;
12976;SDS011;6553;48.412;9.514;2024-02-21T03:34:34;3.83;;;2.83;;
12976;SDS011;6553;48.412;9.514;2024-02-21T03:37:00;2.35;;;2.15;;
12976;SDS011;6553;48.412;9.514;2024-02-21T03:39:27;2.60;;;2.40;;
12976;SDS011;6553;48.412;9.514;2024-02-21T03:41:52;2.88;;;2.28;;
12976;SDS011;6553;48.412;9.514;2024-02-21T03:44:18;2.55;;;2.35;;
12976;SDS011;6553;48.412;9.514;2024-02-21T03:46:44;2.58;;;2.28;;
12976;SDS011;6553;48.412;9.514;2024-02-21T03:49:10;2.75;;;2.35;;
12976;SDS011;6553;48.412;9.514;2024-02-21T03:51:36;2.90;;;2.70;;
12976;SDS011;6553;48.412;9.514;2024-02-21T03:54:02;3.80;;;2.50;;
12976;SDS011;6553;48.412;9.514;2024-02-21T03:56:28;3.17;;;2.58;;
12976;SDS011;6553;48.412;9.514;2024-02-21T03:58:54;2.72;;;2.50;;
12976;SDS011;6553;48.412;9.514;2024-02-21T04:01:20;2.35;;;2.08;;
12976;SDS011;6553;48.412;9.514;2024-02-21T04:03:46;2.53;;;2.33;;
12976;SDS011;6553;48.412;9.514;2024-02-21T04:06:11;2.83;;;2.20;;
12976;SDS011;6553;48.412;9.514;2024-02-21T04:08:38;2.58;;;2.38;;
12976;SDS011;6553;48.412;9.514;2024-02-21T04:11:04;2.50;;;2.30;;
12976;SDS011;6553;48.412;9.514;2024-02-21T04:13:30;2.53;;;2.22;;
12976;SDS011;6553;48.412;9.514;2024-02-21T04:15:56;2.80;;;2.15;;
12976;SDS011;6553;48.412;9.514;2024-02-21T04:18:22;2.60;;;2.40;;
12976;SDS011;6553;48.412;9.514;2024-02-21T04:20:47;2.83;;;2.42;;
12976;SDS011;6553;48.412;9.514;2024-02-21T04:23:15;2.33;;;2.08;;
12976;SDS011;6553;48.412;9.514;2024-02-21T04:25:41;2.95;;;2.42;;
12976;SDS011;6553;48.412;9.514;2024-02-21T04:28:07;2.78;;;2.13;;
12976;SDS011;6553;48.412;9.514;2024-02-21T04:30:32;2.92;;;2.20;;
12976;SDS011;6553;48.412;9.514;2024-02-21T04:32:58;3.25;;;2.10;;
12976;SDS011;6553;48.412;9.514;2024-02-21T04:35:24;2.03;;;1.90;;
12976;SDS011;6553;48.412;9.514;2024-02-21T04:37:50;2.45;;;1.90;;
12976;SDS011;6553;48.412;9.514;2024-02-21T04:40:15;2.58;;;2.10;;
12976;SDS011;6553;48.412;9.514;2024-02-21T04:42:42;3.13;;;1.98;;
12976;SDS011;6553;48.412;9.514;2024-02-21T04:45:08;2.15;;;1.75;;
12976;SDS011;6553;48.412;9.514;2024-02-21T04:47:34;2.10;;;1.77;;
12976;SDS011;6553;48.412;9.514;2024-02-21T04:50:00;2.13;;;1.95;;
12976;SDS011;6553;48.412;9.514;2024-02-21T04:52:26;2.28;;;2.08;;
12976;SDS011;6553;48.412;9.514;2024-02-21T04:54:52;2.53;;;2.33;;
12976;SDS011;6553;48.412;9.514;2024-02-21T04:57:18;2.50;;;2.30;;
12976;SDS011;6553;48.412;9.514;2024-02-21T04:59:44;2.72;;;2.47;;
12976;SDS011;6553;48.412;9.514;2024-02-21T05:02:10;2.60;;;2.40;;
12976;SDS011;6553;48.412;9.514;2024-02-21T05:04:36;2.47;;;2.28;;
12976;SDS011;6553;48.412;9.514;2024-02-21T05:07:03;2.63;;;2.03;;
12976;SDS011;6553;48.412;9.514;2024-02-21T05:09:30;2.38;;;2.17;;
12976;SDS011;6553;48.412;9.514;2024-02-21T05:11:56;2.72;;;2.20;;
12976;SDS011;6553;48.412;9.514;2024-02-21T05:14:24;2.30;;;2.10;;
12976;SDS011;6553;48.412;9.514;2024-02-21T05:16:52;2.60;;;2.03;;
12976;SDS011;6553;48.412;9.514;2024-02-21T05:19:18;2.60;;;2.40;;
12976;SDS011;6553;48.412;9.514;2024-02-21T05:21:44;2.58;;;2.38;;
12976;SDS011;6553;48.412;9.514;2024-02-21T05:24:10;2.22;;;2.08;;
12976;SDS011;6553;48.412;9.514;2024-02-21T05:26:36;2.75;;;2.53;;
12976;SDS011;6553;48.412;9.514;2024-02-21T05:29:02;3.05;;;2.13;;
12976;SDS011;6553;48.412;9.514;2024-02-21T05:31:42;2.85;;;2.22;;
12976;SDS011;6553;48.412;9.514;2024-02-21T05:34:23;2.95;;;2.50;;
12976;SDS011;6553;48.412;9.514;2024-02-21T05:36:50;2.40;;;2.20;;
12976;SDS011;6553;48.412;9.514;2024-02-21T05:39:16;3.05;;;2.00;;
12976;SDS011;6553;48.412;9.514;2024-02-21T05:41:42;2.63;;;2.13;;
12976;SDS011;6553;48.412;9.514;2024-02-21T05:44:08;3.05;;;2.20;;
12976;SDS011;6553;48.412;9.514;2024-02-21T05:46:34;2.50;;;2.10;;
12976;SDS011;6553;48.412;9.514;2024-02-21T05:49:00;2.25;;;2.05;;
12976;SDS011;6553;48.412;9.514;2024-02-21T05:51:26;2.50;;;2.30;;
12976;SDS011;6553;48.412;9.514;2024-02-21T05:53:52;2.40;;;1.98;;
12976;SDS011;6553;48.412;9.514;2024-02-21T05:56:17;3.05;;;1.92;;
12976;SDS011;6553;48.412;9.514;2024-02-21T05:58:44;2.13;;;1.90;;
12976;SDS011;6553;48.412;9.514;2024-02-21T06:01:10;3.85;;;2.13;;
12976;SDS011;6553;48.412;9.514;2024-02-21T06:03:36;2.75;;;2.03;;
12976;SDS011;6553;48.412;9.514;2024-02-21T06:06:02;3.10;;;2.28;;
12976;SDS011;6553;48.412;9.514;2024-02-21T06:08:30;3.03;;;2.28;;
12976;SDS011;6553;48.412;9.514;2024-02-21T06:10:56;2.20;;;1.83;;
12976;SDS011;6553;48.412;9.514;2024-02-21T06:13:23;2.60;;;2.13;;
12976;SDS011;6553;48.412;9.514;2024-02-21T06:15:49;2.50;;;2.30;;
12976;SDS011;6553;48.412;9.514;2024-02-21T06:18:19;1.90;;;1.70;;
12976;SDS011;6553;48.412;9.514;2024-02-21T06:20:45;2.45;;;2.25;;
12976;SDS011;6553;48.412;9.514;2024-02-21T06:23:12;2.72;;;2.03;;
12976;SDS011;6553;48.412;9.514;2024-02-21T06:25:40;2.67;;;1.95;;
12976;SDS011;6553;48.412;9.514;2024-02-21T06:28:06;2.42;;;2.13;;
12976;SDS011;6553;48.412;9.514;2024-02-21T06:30:32;2.53;;;2.33;;
12976;SDS011;6553;48.412;9.514;2024-02-21T06:32:57;3.33;;;2.58;;
12976;SDS011;6553;48.412;9.514;2024-02-21T06:35:24;2.47;;;2.28;;
12976;SDS011;6553;48.412;9.514;2024-02-21T06:37:51;2.67;;;2.38;;
12976;SDS011;6553;48.412;9.514;2024-02-21T06:40:17;2.42;;;2.03;;
12976;SDS011;6553;48.412;9.514;2024-02-21T06:42:46;4.30;;;2.22;;
12976;SDS011;6553;48.412;9.514;2024-02-21T06:45:12;2.85;;;2.58;;
12976;SDS011;6553;48.412;9.514;2024-02-21T06:47:38;2.78;;;2.20;;
12976;SDS011;6553;48.412;9.514;2024-02-21T06:50:04;2.50;;;2.30;;
12976;SDS011;6553;48.412;9.514;2024-02-21T06:52:30;3.13;;;2.30;;
12976;SDS011;6553;48.412;9.514;2024-02-21T06:54:56;3.05;;;2.25;;
12976;SDS011;6553;48.412;9.514;2024-02-21T06:57:22;2.55;;;2.20;;
12976;SDS011;6553;48.412;9.514;2024-02-21T06:59:48;2.70;;;2.50;;
12976;SDS011;6553;48.412;9.514;2024-02-21T07:02:14;3.05;;;2.75;;
12976;SDS011;6553;48.412;9.514;2024-02-21T07:04:40;3.95;;;2.92;;
12976;SDS011;6553;48.412;9.514;2024-02-21T07:07:06;3.42;;;2.30;;
12976;SDS011;6553;48.412;9.514;2024-02-21T07:09:31;3.85;;;2.70;;
12976;SDS011;6553;48.412;9.514;2024-02-21T07:11:58;3.53;;;2.90;;
12976;SDS011;6553;48.412;9.514;2024-02-21T07:14:24;3.15;;;2.95;;
12976;SDS011;6553;48.412;9.514;2024-02-21T07:16:51;3.17;;;2.88;;
12976;SDS011;6553;48.412;9.514;2024-02-21T07:19:17;3.58;;;3.03;;
12976;SDS011;6553;48.412;9.514;2024-02-21T07:21:42;2.90;;;2.70;;
12976;SDS011;6553;48.412;9.514;2024-02-21T07:24:08;3.40;;;3.10;;
12976;SDS011;6553;48.412;9.514;2024-02-21T07:26:34;3.10;;;2.75;;
12976;SDS011;6553;48.412;9.514;2024-02-21T07:29:00;4.35;;;3.00;;
12976;SDS011;6553;48.412;9.514;2024-02-21T07:31:26;4.50;;;3.28;;
12976;SDS011;6553;48.412;9.514;2024-02-21T07:33:52;3.30;;;3.10;;
12976;SDS011;6553;48.412;9.514;2024-02-21T07:36:27;4.07;;;3.30;;
12976;SDS011;6553;48.412;9.514;2024-02-21T07:38:57;3.85;;;3.38;;
12976;SDS011;6553;48.412;9.514;2024-02-21T07:41:24;3.55;;;3.25;;
12976;SDS011;6553;48.412;9.514;2024-02-21T07:43:51;3.47;;;3.17;;
12976;SDS011;6553;48.412;9.514;2024-02-21T07:46:17;4.28;;;3.40;;
12976;SDS011;6553;48.412;9.514;2024-02-21T07:48:45;3.83;;;3.00;;
12976;SDS011;6553;48.412;9.514;2024-02-21T07:51:11;3.35;;;3.05;;
12976;SDS011;6553;48.412;9.514;2024-02-21T07:53:40;3.42;;;3.13;;
12976;SDS011;6553;48.412;9.514;2024-02-21T07:56:13;4.50;;;3.30;;
12976;SDS011;6553;48.412;9.514;2024-02-21T07:58:43;3.33;;;3.03;;
12976;SDS011;6553;48.412;9.514;2024-02-21T08:01:09;4.03;;;3.42;;
12976;SDS011;6553;48.412;9.514;2024-02-21T08:03:35;3.63;;;3.33;;
12976;SDS011;6553;48.412;9.514;2024-02-21T08:06:02;4.68;;;2.92;;
12976;SDS011;6553;48.412;9.514;2024-02-21T08:08:28;3.30;;;3.00;;
12976;SDS011;6553;48.412;9.514;2024-02-21T08:10:54;4.10;;;3.28;;
12976;SDS011;6553;48.412;9.514;2024-02-21T08:13:20;3.55;;;3.25;;
12976;SDS011;6553;48.412;9.514;2024-02-21T08:15:46;3.30;;;3.00;;
12976;SDS011;6553;48.412;9.514;2024-02-21T08:18:11;3.30;;;3.00;;
12976;SDS011;6553;48.412;9.514;2024-02-21T08:20:37;3.00;;;2.55;;
12976;SDS011;6553;48.412;9.514;2024-02-21T08:23:03;4.07;;;3.17;;
12976;SDS011;6553;48.412;9.514;2024-02-21T08:25:29;3.40;;;2.75;;
12976;SDS011;6553;48.412;9.514;2024-02-21T08:27:57;2.80;;;2.40;;
12976;SDS011;6553;48.412;9.514;2024-02-21T08:30:24;4.25;;;3.30;;
12976;SDS011;6553;48.412;9.514;2024-02-21T08:32:49;3.10;;;2.90;;
12976;SDS011;6553;48.412;9.514;2024-02-21T08:35:15;3.63;;;3.10;;
12976;SDS011;6553;48.412;9.514;2024-02-21T08:37:43;2.72;;;2.53;;
12976;SDS011;6553;48.412;9.514;2024-02-21T08:40:12;3.20;;;2.70;;
12976;SDS011;6553;48.412;9.514;2024-02-21T08:42:41;4.07;;;2.78;;
12976;SDS011;6553;48.412;9.514;2024-02-21T08:45:07;3.65;;;2.50;;
12976;SDS011;6553;48.412;9.514;2024-02-21T08:47:33;3.00;;;2.70;;
12976;SDS011;6553;48.412;9.514;2024-02-21T08:50:01;2.70;;;2.50;;
12976;SDS011;6553;48.412;9.514;2024-02-21T08:52:27;3.85;;;2.67;;
12976;SDS011;6553;48.412;9.514;2024-02-21T08:54:53;2.28;;;2.08;;
12976;SDS011;6553;48.412;9.514;2024-02-21T08:57:19;2.55;;;2.35;;
12976;SDS011;6553;48.412;9.514;2024-02-21T08:59:45;3.25;;;2.60;;
12976;SDS011;6553;48.412;9.514;2024-02-21T09:02:12;3.92;;;2.42;;
12976;SDS011;6553;48.412;9.514;2024-02-21T09:04:41;3.10;;;2.80;;
12976;SDS011;6553;48.412;9.514;2024-02-21T09:07:07;2.38;;;2.20;;
12976;SDS011;6553;48.412;9.514;2024-02-21T09:09:33;2.70;;;2.22;;
12976;SDS011;6553;48.412;9.514;2024-02-21T09:11:59;2.47;;;2.28;;
12976;SDS011;6553;48.412;9.514;2024-02-21T09:14:31;3.20;;;2.40;;
12976;SDS011;6553;48.412;9.514;2024-02-21T09:16:58;2.67;;;2.38;;
12976;SDS011;6553;48.412;9.514;2024-02-21T09:19:23;2.50;;;2.30;;
12976;SDS011;6553;48.412;9.514;2024-02-21T09:21:49;2.53;;;2.28;;
12976;SDS011;6553;48.412;9.514;2024-02-21T09:24:15;3.30;;;2.45;;
12976;SDS011;6553;48.412;9.514;2024-02-21T09:26:41;3.35;;;2.47;;
12976;SDS011;6553;48.412;9.514;2024-02-21T09:29:06;2.45;;;2.20;;
12976;SDS011;6553;48.412;9.514;2024-02-21T09:31:33;2.60;;;2.40;;
12976;SDS011;6553;48.412;9.514;2024-02-21T09:33:58;3.03;;;2.10;;
12976;SDS011;6553;48.412;9.514;2024-02-21T09:36:24;2.55;;;2.25;;
12976;SDS011;6553;48.412;9.514;2024-02-21T09:38:50;2.22;;;2.00;;
12976;SDS011;6553;48.412;9.514;2024-02-21T09:43:43;2.33;;;2.13;;
12976;SDS011;6553;48.412;9.514;2024-02-21T09:46:17;2.33;;;2.13;;
12976;SDS011;6553;48.412;9.514;2024-02-21T09:48:52;2.50;;;2.25;;
12976;SDS011;6553;48.412;9.514;2024-02-21T09:51:41;2.50;;;2.30;;
12976;SDS011;6553;48.412;9.514;2024-02-21T09:54:08;2.38;;;2.17;;
12976;SDS011;6553;48.412;9.514;2024-02-21T09:56:34;3.58;;;2.30;;
12976;SDS011;6553;48.412;9.514;2024-02-21T09:59:01;1.77;;;1.67;;
12976;SDS011;6553;48.412;9.514;2024-02-21T10:01:30;2.35;;;2.15;;
12976;SDS011;6553;48.412;9.514;2024-02-21T10:03:57;1.98;;;1.88;;
12976;SDS011;6553;48.412;9.514;2024-02-21T10:06:23;2.72;;;2.20;;
12976;SDS011;6553;48.412;9.514;2024-02-21T10:08:52;2.00;;;1.90;;
12976;SDS011;6553;48.412;9.514;2024-02-21T10:11:25;2.83;;;1.88;;
12976;SDS011;6553;48.412;9.514;2024-02-21T10:13:51;2.88;;;2.20;;
12976;SDS011;6553;48.412;9.514;2024-02-21T10:16:33;2.38;;;1.77;;
12976;SDS011;6553;48.412;9.514;2024-02-21T10:19:00;1.75;;;1.65;;
12976;SDS011;6553;48.412;9.514;2024-02-21T10:21:26;2.60;;;1.70;;
12976;SDS011;6553;48.412;9.514;2024-02-21T10:23:51;2.20;;;2.00;;
12976;SDS011;6553;48.412;9.514;2024-02-21T10:26:18;2.40;;;2.20;;
12976;SDS011;6553;48.412;9.514;2024-02-21T10:28:45;2.58;;;2.03;;
12976;SDS011;6553;48.412;9.514;2024-02-21T10:31:23;2.67;;;1.55;;
12976;SDS011;6553;48.412;9.514;2024-02-21T10:36:25;3.03;;;2.17;;
12976;SDS011;6553;48.412;9.514;2024-02-21T10:38:51;2.05;;;1.77;;
12976;SDS011;6553;48.412;9.514;2024-02-21T10:41:19;2.28;;;1.77;;
12976;SDS011;6553;48.412;9.514;2024-02-21T10:43:50;2.17;;;1.98;;
12976;SDS011;6553;48.412;9.514;2024-02-21T10:46:20;1.95;;;1.77;;
12976;SDS011;6553;48.412;9.514;2024-02-21T10:48:54;1.90;;;1.80;;
12976;SDS011;6553;48.412;9.514;2024-02-21T10:51:33;2.17;;;1.40;;
12976;SDS011;6553;48.412;9.514;2024-02-21T10:56:58;2.05;;;1.70;;
12976;SDS011;6553;48.412;9.514;2024-02-21T10:59:26;2.25;;;2.05;;
12976;SDS011;6553;48.412;9.514;2024-02-21T11:01:55;1.65;;;1.55;;
12976;SDS011;6553;48.412;9.514;2024-02-21T11:04:21;1.90;;;1.70;;
12976;SDS011;6553;48.412;9.514;2024-02-21T11:06:47;2.00;;;1.60;;
12976;SDS011;6553;48.412;9.514;2024-02-21T11:09:13;1.50;;;1.40;;
12976;SDS011;6553;48.412;9.514;2024-02-21T11:11:40;1.65;;;1.55;;
12976;SDS011;6553;48.412;9.514;2024-02-21T11:16:42;1.52;;;1.42;;
12976;SDS011;6553;48.412;9.514;2024-02-21T11:19:09;1.77;;;1.67;;
12976;SDS011;6553;48.412;9.514;2024-02-21T11:21:56;1.58;;;1.48;;
12976;SDS011;6553;48.412;9.514;2024-02-21T11:24:30;1.73;;;1.50;;
12976;SDS011;6553;48.412;9.514;2024-02-21T11:27:09;2.28;;;1.90;;
12976;SDS011;6553;48.412;9.514;2024-02-21T11:29:45;1.67;;;1.58;;
12976;SDS011;6553;48.412;9.514;2024-02-21T11:32:16;1.50;;;1.35;;
12976;SDS011;6553;48.412;9.514;2024-02-21T11:34:55;1.67;;;1.58;;
12976;SDS011;6553;48.412;9.514;2024-02-21T11:37:32;1.50;;;1.40;;
12976;SDS011;6553;48.412;9.514;2024-02-21T11:39:59;2.10;;;1.58;;
12976;SDS011;6553;48.412;9.514;2024-02-21T11:42:26;3.03;;;1.65;;
12976;SDS011;6553;48.412;9.514;2024-02-21T11:44:54;1.98;;;1.42;;
12976;SDS011;6553;48.412;9.514;2024-02-21T11:47:23;2.30;;;1.55;;
12976;SDS011;6553;48.412;9.514;2024-02-21T11:49:50;1.40;;;1.30;;
12976;SDS011;6553;48.412;9.514;2024-02-21T11:52:22;1.60;;;1.50;;
12976;SDS011;6553;48.412;9.514;2024-02-21T11:54:50;1.77;;;1.48;;
12976;SDS011;6553;48.412;9.514;2024-02-21T11:57:17;2.03;;;1.55;;
12976;SDS011;6553;48.412;9.514;2024-02-21T11:59:46;1.55;;;1.40;;
12976;SDS011;6553;48.412;9.514;2024-02-21T12:02:14;1.50;;;1.30;;
12976;SDS011;6553;48.412;9.514;2024-02-21T12:04:40;1.63;;;1.50;;
12976;SDS011;6553;48.412;9.514;2024-02-21T12:07:07;1.60;;;1.50;;
12976;SDS011;6553;48.412;9.514;2024-02-21T12:09:34;1.40;;;1.30;;
12976;SDS011;6553;48.412;9.514;2024-02-21T12:12:00;1.60;;;1.50;;
12976;SDS011;6553;48.412;9.514;2024-02-21T12:14:31;1.40;;;1.30;;
12976;SDS011;6553;48.412;9.514;2024-02-21T12:17:00;1.30;;;1.20;;
12976;SDS011;6553;48.412;9.514;2024-02-21T12:19:30;1.80;;;1.40;;
12976;SDS011;6553;48.412;9.514;2024-02-21T12:21:59;1.42;;;1.33;;
12976;SDS011;6553;48.412;9.514;2024-02-21T12:24:25;1.48;;;1.30;;
12976;SDS011;6553;48.412;9.514;2024-02-21T12:26:53;1.25;;;1.15;;
12976;SDS011;6553;48.412;9.514;2024-02-21T12:29:21;1.70;;;1.48;;
12976;SDS011;6553;48.412;9.514;2024-02-21T12:31:49;3.60;;;1.25;;
12976;SDS011;6553;48.412;9.514;2024-02-21T12:34:16;1.30;;;1.20;;
12976;SDS011;6553;48.412;9.514;2024-02-21T12:36:42;2.42;;;1.50;;
12976;SDS011;6553;48.412;9.514;2024-02-21T12:39:12;1.38;;;1.27;;
12976;SDS011;6553;48.412;9.514;2024-02-21T12:41:38;2.20;;;1.08;;
12976;SDS011;6553;48.412;9.514;2024-02-21T12:44:06;2.78;;;1.35;;
12976;SDS011;6553;48.412;9.514;2024-02-21T12:46:33;1.58;;;1.40;;
12976;SDS011;6553;48.412;9.514;2024-02-21T12:49:02;2.35;;;1.35;;
12976;SDS011;6553;48.412;9.514;2024-02-21T12:51:29;1.20;;;1.20;;
12976;SDS011;6553;48.412;9.514;2024-02-21T12:53:58;1.33;;;1.30;;
12976;SDS011;6553;48.412;9.514;2024-02-21T12:56:25;1.60;;;1.50;;
12976;SDS011;6553;48.412;9.514;2024-02-21T12:58:52;1.20;;;1.10;;
12976;SDS011;6553;48.412;9.514;2024-02-21T13:01:18;1.30;;;1.20;;
12976;SDS011;6553;48.412;9.514;2024-02-21T13:03:44;1.33;;;1.23;;
12976;SDS011;6553;48.412;9.514;2024-02-21T13:06:11;2.13;;;1.40;;
12976;SDS011;6553;48.412;9.514;2024-02-21T13:08:37;1.20;;;1.10;;
12976;SDS011;6553;48.412;9.514;2024-02-21T13:11:04;1.33;;;1.23;;
12976;SDS011;6553;48.412;9.514;2024-02-21T13:13:30;1.33;;;1.23;;
12976;SDS011;6553;48.412;9.514;2024-02-21T13:15:59;1.38;;;1.27;;
12976;SDS011;6553;48.412;9.514;2024-02-21T13:18:25;0.95;;;0.95;;
12976;SDS011;6553;48.412;9.514;2024-02-21T13:20:51;1.48;;;1.00;;
12976;SDS011;6553;48.412;9.514;2024-02-21T13:23:17;1.38;;;1.20;;
12976;SDS011;6553;48.412;9.514;2024-02-21T13:25:43;1.30;;;1.20;;
12976;SDS011;6553;48.412;9.514;2024-02-21T13:28:10;1.13;;;1.02;;
12976;SDS011;6553;48.412;9.514;2024-02-21T13:30:36;2.10;;;1.40;;
12976;SDS011;6553;48.412;9.514;2024-02-21T13:33:02;1.95;;;1.20;;
12976;SDS011;6553;48.412;9.514;2024-02-21T13:35:28;1.33;;;1.20;;
12976;SDS011;6553;48.412;9.514;2024-02-21T13:37:54;1.13;;;1.10;;
12976;SDS011;6553;48.412;9.514;2024-02-21T13:40:20;1.20;;;1.10;;
12976;SDS011;6553;48.412;9.514;2024-02-21T13:42:45;1.42;;;1.20;;
12976;SDS011;6553;48.412;9.514;2024-02-21T13:45:11;1.90;;;1.23;;
12976;SDS011;6553;48.412;9.514;2024-02-21T13:47:37;1.00;;;1.00;;
12976;SDS011;6553;48.412;9.514;2024-02-21T13:50:04;1.55;;;1.30;;
12976;SDS011;6553;48.412;9.514;2024-02-21T13:52:35;2.15;;;1.27;;
12976;SDS011;6553;48.412;9.514;2024-02-21T13:55:02;1.27;;;1.13;;
12976;SDS011;6553;48.412;9.514;2024-02-21T13:57:28;1.30;;;1.20;;
12976;SDS011;6553;48.412;9.514;2024-02-21T13:59:54;1.40;;;1.30;;
12976;SDS011;6553;48.412;9.514;2024-02-21T14:02:20;2.55;;;1.00;;
12976;SDS011;6553;48.412;9.514;2024-02-21T14:04:46;1.33;;;1.05;;
12976;SDS011;6553;48.412;9.514;2024-02-21T14:07:12;1.13;;;1.13;;
12976;SDS011;6553;48.412;9.514;2024-02-21T14:09:38;1.67;;;1.08;;
12976;SDS011;6553;48.412;9.514;2024-02-21T14:12:04;2.05;;;1.10;;
12976;SDS011;6553;48.412;9.514;2024-02-21T14:14:36;1.08;;;0.98;;
12976;SDS011;6553;48.412;9.514;2024-02-21T14:17:03;1.23;;;1.17;;
12976;SDS011;6553;48.412;9.514;2024-02-21T14:19:29;1.20;;;1.10;;
12976;SDS011;6553;48.412;9.514;2024-02-21T14:21:55;1.20;;;1.10;;
12976;SDS011;6553;48.412;9.514;2024-02-21T14:24:22;1.10;;;1.00;;
12976;SDS011;6553;48.412;9.514;2024-02-21T14:26:48;1.02;;;0.90;;
12976;SDS011;6553;48.412;9.514;2024-02-21T14:29:14;1.15;;;1.00;;
12976;SDS011;6553;48.412;9.514;2024-02-21T14:31:40;1.40;;;1.20;;
12976;SDS011;6553;48.412;9.514;2024-02-21T14:34:06;1.20;;;1.10;;
12976;SDS011;6553;48.412;9.514;2024-02-21T14:36:33;1.08;;;1.00;;
12976;SDS011;6553;48.412;9.514;2024-02-21T14:38:58;1.20;;;1.10;;
12976;SDS011;6553;48.412;9.514;2024-02-21T14:41:24;1.58;;;1.30;;
12976;SDS011;6553;48.412;9.514;2024-02-21T14:43:50;1.55;;;1.10;;
12976;SDS011;6553;48.412;9.514;2024-02-21T14:46:16;1.17;;;1.00;;
12976;SDS011;6553;48.412;9.514;2024-02-21T14:48:42;1.48;;;1.10;;
12976;SDS011;6553;48.412;9.514;2024-02-21T14:51:08;4.78;;;1.20;;
12976;SDS011;6553;48.412;9.514;2024-02-21T14:53:34;1.05;;;0.95;;
12976;SDS011;6553;48.412;9.514;2024-02-21T14:56:00;1.23;;;1.13;;
12976;SDS011;6553;48.412;9.514;2024-02-21T14:58:25;1.45;;;1.30;;
12976;SDS011;6553;48.412;9.514;2024-02-21T15:00:52;1.10;;;1.00;;
12976;SDS011;6553;48.412;9.514;2024-02-21T15:03:19;2.15;;;1.20;;
12976;SDS011;6553;48.412;9.514;2024-02-21T15:05:45;1.60;;;1.00;;
12976;SDS011;6553;48.412;9.514;2024-02-21T15:08:12;1.55;;;1.13;;
12976;SDS011;6553;48.412;9.514;2024-02-21T15:10:42;1.00;;;1.00;;
12976;SDS011;6553;48.412;9.514;2024-02-21T15:13:10;1.20;;;1.10;;